createdAt,value
2022-12-05T00:00:25.832Z,10.50
2022-12-05T00:01:31.661Z,9.93
2022-12-05T00:02:34.962Z,9.60
2022-12-05T00:03:37.568Z,10.70
2022-12-05T00:04:40.406Z,10.43
2022-12-05T00:05:43.519Z,9.55
2022-12-05T00:06:46.459Z,9.52
2022-12-05T00:07:49.125Z,9.95
2022-12-05T00:08:52.467Z,10.20
2022-12-05T00:09:55.211Z,10.18
2022-12-05T00:10:58.136Z,10.70
2022-12-05T00:12:00.908Z,9.00
2022-12-05T00:13:04.085Z,7.70
2022-12-05T00:14:08.805Z,11.27
2022-12-05T00:15:12.643Z,10.18
2022-12-05T00:16:17.794Z,8.93
2022-12-05T00:17:20.447Z,10.30
2022-12-05T00:18:23.111Z,9.93
2022-12-05T00:19:25.761Z,9.18
2022-12-05T00:20:28.439Z,10.25
2022-12-05T00:21:33.152Z,9.80
2022-12-05T00:22:39.116Z,10.23
2022-12-05T00:23:42.303Z,9.55
2022-12-05T00:24:44.954Z,9.70
2022-12-05T00:25:47.769Z,9.48
2022-12-05T00:26:50.624Z,8.80
2022-12-05T00:27:53.310Z,9.05
2022-12-05T00:28:57.614Z,10.55
2022-12-05T00:30:00.629Z,9.15
2022-12-05T00:31:05.506Z,9.57
2022-12-05T00:32:08.404Z,10.98
2022-12-05T00:33:11.158Z,9.05
2022-12-05T00:34:13.853Z,10.32
2022-12-05T00:35:16.639Z,10.05
2022-12-05T00:36:27.782Z,10.35
2022-12-05T00:37:30.435Z,10.20
2022-12-05T00:38:33.148Z,11.57
2022-12-05T00:39:35.946Z,10.27
2022-12-05T00:40:38.575Z,9.77
2022-12-05T00:41:42.302Z,10.88
2022-12-05T00:42:48.103Z,10.00
2022-12-05T00:43:55.778Z,8.48
2022-12-05T00:44:58.452Z,10.70
2022-12-05T00:46:06.113Z,11.45
2022-12-05T00:47:08.950Z,10.05
2022-12-05T00:48:11.578Z,10.90
2022-12-05T00:49:14.435Z,10.05
2022-12-05T00:50:17.223Z,11.05
2022-12-05T00:51:27.178Z,9.77
2022-12-05T00:52:29.920Z,11.30
2022-12-05T00:53:33.273Z,10.25
2022-12-05T00:54:35.953Z,9.73
2022-12-05T00:55:38.598Z,10.43
2022-12-05T00:56:41.871Z,8.00
2022-12-05T00:57:44.611Z,9.20
2022-12-05T00:58:49.391Z,10.00
2022-12-05T00:59:52.142Z,10.02
2022-12-05T01:00:54.894Z,9.88
2022-12-05T01:01:57.763Z,10.38
2022-12-05T01:03:00.741Z,8.68
2022-12-05T01:04:11.992Z,8.15
2022-12-05T01:05:15.125Z,10.60
2022-12-05T01:06:17.842Z,10.93
2022-12-05T01:07:20.500Z,10.23
2022-12-05T01:08:23.170Z,9.82
2022-12-05T01:09:26.049Z,10.18
2022-12-05T01:10:29.157Z,10.57
2022-12-05T01:11:34.043Z,10.82
2022-12-05T01:12:40.388Z,10.30
2022-12-05T01:13:43.486Z,9.98
2022-12-05T01:14:46.375Z,11.73
2022-12-05T01:15:49.034Z,10.07
2022-12-05T01:16:53.327Z,11.63
2022-12-05T01:17:56.082Z,10.98
2022-12-05T01:19:00.309Z,11.48
2022-12-05T01:20:03.257Z,10.00
2022-12-05T01:21:07.033Z,11.02
2022-12-05T01:22:09.839Z,11.43
2022-12-05T01:23:13.011Z,11.45
2022-12-05T01:24:17.611Z,10.70
2022-12-05T01:25:20.473Z,9.57
2022-12-05T01:26:23.717Z,10.70
2022-12-05T01:27:26.570Z,10.32
2022-12-05T01:28:29.352Z,10.25
2022-12-05T01:29:32.319Z,10.98
2022-12-05T01:30:41.705Z,10.20
2022-12-05T01:31:44.939Z,9.63
2022-12-05T01:32:47.818Z,10.65
2022-12-05T01:33:51.157Z,9.52
2022-12-05T01:34:54.939Z,9.60
2022-12-05T01:35:57.587Z,9.82
2022-12-05T01:37:00.403Z,10.15
2022-12-05T01:38:03.348Z,10.15
2022-12-05T01:39:07.698Z,10.52
2022-12-05T01:40:10.641Z,10.98
2022-12-05T01:41:17.386Z,9.40
2022-12-05T01:42:24.722Z,9.70
2022-12-05T01:43:29.149Z,9.70
2022-12-05T01:44:31.794Z,10.73
2022-12-05T01:45:38.388Z,11.27
2022-12-05T01:46:45.477Z,11.73
2022-12-05T01:47:48.187Z,11.48
2022-12-05T01:48:52.282Z,12.55
2022-12-05T01:49:55.103Z,11.40
2022-12-05T01:50:58.832Z,11.55
2022-12-05T01:52:08.386Z,10.55
2022-12-05T01:53:11.259Z,10.50
2022-12-05T01:54:15.551Z,10.82
2022-12-05T01:55:19.460Z,9.43
2022-12-05T01:56:22.361Z,10.70
2022-12-05T01:57:25.601Z,11.00
2022-12-05T01:58:31.675Z,10.20
2022-12-05T01:59:38.129Z,9.65
2022-12-05T02:00:40.897Z,11.45
2022-12-05T02:01:43.702Z,10.20
2022-12-05T02:02:56.277Z,10.55
2022-12-05T02:03:59.660Z,10.52
2022-12-05T02:05:08.256Z,9.55
2022-12-05T02:06:11.621Z,8.95
2022-12-05T02:07:14.314Z,9.52
2022-12-05T02:08:17.406Z,9.60
2022-12-05T02:09:20.830Z,10.73
2022-12-05T02:10:24.075Z,9.82
2022-12-05T02:11:29.800Z,10.57
2022-12-05T02:12:32.549Z,11.07
2022-12-05T02:14:01.218Z,9.85
2022-12-05T02:15:16.214Z,9.98
2022-12-05T02:16:51.679Z,9.75
2022-12-05T02:18:13.305Z,10.18
2022-12-05T02:19:31.613Z,9.73
2022-12-05T02:21:11.183Z,9.75
2022-12-05T02:22:32.168Z,11.15
2022-12-05T02:25:01.522Z,8.00
2022-12-05T02:26:35.911Z,8.57
2022-12-05T02:28:02.647Z,10.27
2022-12-05T02:29:31.562Z,9.57
2022-12-05T02:30:50.751Z,10.38
2022-12-05T02:32:04.193Z,10.15
2022-12-05T02:33:31.773Z,11.55
2022-12-05T02:34:36.343Z,10.35
2022-12-05T02:36:03.468Z,11.77
2022-12-05T02:37:17.186Z,10.20
2022-12-05T02:38:41.922Z,10.63
2022-12-05T02:39:54.047Z,10.48
2022-12-05T02:41:17.280Z,10.80
2022-12-05T02:43:03.431Z,9.57
2022-12-05T02:44:29.368Z,11.02
2022-12-05T02:45:34.618Z,12.02
2022-12-05T02:46:39.424Z,11.45
2022-12-05T02:47:48.159Z,12.40
2022-12-05T02:48:59.276Z,11.07
2022-12-05T02:50:01.997Z,11.43
2022-12-05T02:51:05.906Z,11.70
2022-12-05T02:52:13.072Z,11.68
2022-12-05T02:53:17.110Z,11.88
2022-12-05T02:54:24.971Z,12.98
2022-12-05T02:55:28.947Z,12.48
2022-12-05T02:56:33.608Z,13.43
2022-12-05T02:57:38.017Z,9.45
2022-12-05T02:58:54.054Z,10.30
2022-12-05T02:59:57.285Z,10.35
2022-12-05T03:01:00.251Z,11.45
2022-12-05T03:02:03.447Z,10.70
2022-12-05T03:03:15.143Z,11.43
2022-12-05T03:04:20.195Z,10.77
2022-12-05T03:05:43.015Z,11.18
2022-12-05T03:06:58.116Z,10.50
2022-12-05T03:08:03.966Z,10.07
2022-12-05T03:09:25.248Z,10.15
2022-12-05T03:10:29.920Z,10.40
2022-12-05T03:11:41.014Z,10.40
2022-12-05T03:12:50.795Z,9.77
2022-12-05T03:13:56.667Z,9.43
2022-12-05T03:15:16.253Z,11.18
2022-12-05T03:16:25.861Z,9.35
2022-12-05T03:17:38.468Z,9.77
2022-12-05T03:18:46.387Z,9.80
2022-12-05T03:20:12.083Z,10.52
2022-12-05T03:21:36.222Z,9.90
2022-12-05T03:22:42.662Z,10.68
2022-12-05T03:23:54.174Z,9.00
2022-12-05T03:24:56.975Z,10.20
2022-12-05T03:26:15.019Z,9.75
2022-12-05T03:27:32.718Z,9.43
2022-12-05T03:28:37.732Z,8.98
2022-12-05T03:29:44.125Z,10.68
2022-12-05T03:30:48.536Z,9.50
2022-12-05T03:31:54.986Z,7.25
2022-12-05T03:33:19.487Z,9.38
2022-12-05T03:34:35.605Z,9.35
2022-12-05T03:36:02.502Z,9.43
2022-12-05T03:37:11.548Z,9.32
2022-12-05T03:38:28.213Z,7.90
2022-12-05T03:39:33.469Z,7.97
2022-12-05T03:40:49.749Z,9.65
2022-12-05T03:42:10.356Z,9.45
2022-12-05T03:43:23.563Z,9.73
2022-12-05T03:44:43.152Z,9.20
2022-12-05T03:45:56.704Z,7.85
2022-12-05T03:47:07.153Z,8.82
2022-12-05T03:48:24.887Z,8.95
2022-12-05T03:49:42.123Z,8.18
2022-12-05T03:50:46.736Z,8.98
2022-12-05T03:52:06.137Z,8.23
2022-12-05T03:53:21.553Z,8.63
2022-12-05T03:54:28.585Z,8.90
2022-12-05T03:55:34.898Z,10.85
2022-12-05T03:56:42.260Z,9.93
2022-12-05T03:57:59.557Z,9.02
2022-12-05T03:59:20.984Z,8.45
2022-12-05T04:00:25.021Z,8.98
2022-12-05T04:01:30.176Z,9.20
2022-12-05T04:02:51.150Z,9.80
2022-12-05T04:05:12.072Z,9.75
2022-12-05T04:06:21.752Z,8.15
2022-12-05T04:07:26.063Z,7.68
2022-12-05T04:08:33.624Z,8.43
2022-12-05T04:09:49.578Z,6.25
2022-12-05T04:10:54.849Z,9.18
2022-12-05T04:12:03.699Z,9.13
2022-12-05T04:13:17.965Z,9.30
2022-12-05T04:14:26.679Z,10.18
2022-12-05T04:15:51.234Z,9.23
2022-12-05T04:17:03.866Z,9.38
2022-12-05T04:18:07.173Z,8.05
2022-12-05T04:19:21.615Z,8.88
2022-12-05T04:20:56.457Z,8.82
2022-12-05T04:21:59.105Z,7.25
2022-12-05T04:23:02.031Z,10.10
2022-12-05T04:24:37.009Z,8.63
2022-12-05T04:26:06.559Z,9.93
2022-12-05T04:27:39.404Z,9.43
2022-12-05T04:28:48.539Z,10.10
2022-12-05T04:30:04.116Z,9.43
2022-12-05T04:31:25.044Z,9.75
2022-12-05T04:33:47.076Z,9.40
2022-12-05T04:34:55.890Z,9.25
2022-12-05T04:35:59.928Z,9.48
2022-12-05T04:37:19.676Z,10.48
2022-12-05T04:38:43.121Z,9.02
2022-12-05T04:39:57.491Z,7.95
2022-12-05T04:41:09.495Z,8.40
2022-12-05T04:42:16.255Z,9.18
2022-12-05T04:43:19.723Z,9.13
2022-12-05T04:44:29.749Z,9.43
2022-12-05T04:45:33.395Z,10.13
2022-12-05T04:46:37.516Z,9.85
2022-12-05T04:47:45.280Z,9.25
2022-12-05T04:48:52.999Z,9.20
2022-12-05T04:49:56.328Z,8.13
2022-12-05T04:50:59.626Z,9.27
2022-12-05T04:52:05.465Z,9.05
2022-12-05T04:53:09.363Z,9.05
2022-12-05T04:54:20.751Z,8.82
2022-12-05T04:55:29.504Z,8.55
2022-12-05T04:56:34.530Z,7.70
2022-12-05T04:57:51.040Z,8.30
2022-12-05T04:58:53.773Z,8.50
2022-12-05T04:59:56.867Z,7.97
2022-12-05T05:01:05.534Z,9.60
2022-12-05T05:02:09.874Z,7.78
2022-12-05T05:03:19.650Z,8.68
2022-12-05T05:04:27.683Z,8.70
2022-12-05T05:05:31.156Z,8.57
2022-12-05T05:06:33.898Z,6.30
2022-12-05T05:07:51.140Z,7.03
2022-12-05T05:08:56.476Z,7.95
2022-12-05T05:09:59.654Z,7.25
2022-12-05T05:11:22.335Z,7.97
2022-12-05T05:12:25.008Z,7.57
2022-12-05T05:13:27.736Z,8.25
2022-12-05T05:14:30.707Z,8.68
2022-12-05T05:15:33.402Z,9.57
2022-12-05T05:16:40.803Z,9.13
2022-12-05T05:17:43.672Z,8.70
2022-12-05T05:18:50.207Z,8.05
2022-12-05T05:20:15.594Z,8.90
2022-12-05T05:21:26.466Z,6.65
2022-12-05T05:22:29.242Z,8.10
2022-12-05T05:23:32.014Z,7.97
2022-12-05T05:24:35.319Z,8.85
2022-12-05T05:25:37.906Z,8.32
2022-12-05T05:26:42.201Z,8.07
2022-12-05T05:27:49.226Z,8.90
2022-12-05T05:28:52.176Z,7.93
2022-12-05T05:29:55.049Z,7.90
2022-12-05T05:31:05.588Z,7.95
2022-12-05T05:32:08.558Z,9.07
2022-12-05T05:33:11.192Z,8.40
2022-12-05T05:34:16.175Z,8.82
2022-12-05T05:35:20.286Z,7.53
2022-12-05T05:36:25.138Z,8.15
2022-12-05T05:37:27.828Z,8.52
2022-12-05T05:38:30.474Z,9.00
2022-12-05T05:39:33.211Z,8.15
2022-12-05T05:40:37.107Z,8.13
2022-12-05T05:41:39.725Z,7.55
2022-12-05T05:42:47.023Z,9.50
2022-12-05T05:43:51.092Z,8.35
2022-12-05T05:44:53.711Z,7.50
2022-12-05T05:45:56.402Z,8.68
2022-12-05T05:46:59.131Z,8.68
2022-12-05T05:48:01.796Z,7.53
2022-12-05T05:49:05.205Z,8.23
2022-12-05T05:50:08.658Z,8.93
2022-12-05T05:51:13.241Z,8.73
2022-12-05T05:52:15.937Z,8.38
2022-12-05T05:53:18.638Z,8.95
2022-12-05T05:54:21.320Z,8.00
2022-12-05T05:55:24.010Z,7.05
2022-12-05T05:56:27.086Z,8.35
2022-12-05T05:57:30.753Z,8.48
2022-12-05T05:58:34.047Z,8.30
2022-12-05T05:59:36.810Z,8.23
2022-12-05T06:00:39.640Z,8.10
2022-12-05T06:01:42.620Z,7.85
2022-12-05T06:02:45.355Z,8.43
2022-12-05T06:03:48.483Z,8.45
2022-12-05T06:04:51.253Z,8.13
2022-12-05T06:06:02.979Z,8.15
2022-12-05T06:07:05.766Z,6.60
2022-12-05T06:08:09.119Z,7.13
2022-12-05T06:09:11.929Z,7.47
2022-12-05T06:10:15.107Z,6.80
2022-12-05T06:11:25.264Z,7.75
2022-12-05T06:12:28.741Z,7.43
2022-12-05T06:13:31.424Z,8.10
2022-12-05T06:14:34.251Z,6.47
2022-12-05T06:15:37.703Z,7.97
2022-12-05T06:16:40.445Z,6.55
2022-12-05T06:17:43.300Z,8.55
2022-12-05T06:18:46.135Z,7.50
2022-12-05T06:19:48.896Z,7.45
2022-12-05T06:20:54.029Z,8.10
2022-12-05T06:21:56.781Z,8.20
2022-12-05T06:22:59.434Z,8.35
2022-12-05T06:24:02.173Z,8.27
2022-12-05T06:25:05.195Z,8.35
2022-12-05T06:26:12.267Z,8.05
2022-12-05T06:27:14.939Z,9.15
2022-12-05T06:28:18.042Z,9.05
2022-12-05T06:29:25.318Z,7.95
2022-12-05T06:30:28.901Z,8.50
2022-12-05T06:31:34.012Z,7.50
2022-12-05T06:32:36.848Z,8.23
2022-12-05T06:33:39.930Z,8.30
2022-12-05T06:34:42.637Z,9.55
2022-12-05T06:35:46.277Z,8.10
2022-12-05T06:36:48.905Z,8.93
2022-12-05T06:37:51.592Z,8.13
2022-12-05T06:38:54.295Z,8.45
2022-12-05T06:39:57.275Z,7.68
2022-12-05T06:41:00.324Z,7.05
2022-12-05T06:42:03.014Z,8.38
2022-12-05T06:43:05.652Z,7.95
2022-12-05T06:44:09.171Z,8.55
2022-12-05T06:45:12.097Z,7.90
2022-12-05T06:46:16.143Z,7.90
2022-12-05T06:47:21.443Z,8.40
2022-12-05T06:48:24.183Z,7.82
2022-12-05T06:49:36.377Z,9.00
2022-12-05T06:50:40.752Z,8.18
2022-12-05T06:51:43.435Z,8.80
2022-12-05T06:52:46.171Z,8.35
2022-12-05T06:53:48.909Z,9.30
2022-12-05T06:54:52.297Z,8.38
2022-12-05T06:55:58.289Z,8.82
2022-12-05T06:57:01.071Z,8.95
2022-12-05T06:58:03.792Z,7.97
2022-12-05T06:59:06.581Z,8.27
2022-12-05T07:00:28.194Z,7.03
2022-12-05T07:01:41.667Z,8.70
2022-12-05T07:02:44.790Z,8.50
2022-12-05T07:03:50.250Z,9.27
2022-12-05T07:04:52.876Z,8.55
2022-12-05T07:05:55.517Z,8.48
2022-12-05T07:06:58.696Z,7.88
2022-12-05T07:08:01.461Z,8.55
2022-12-05T07:09:05.188Z,8.48
2022-12-05T07:10:08.375Z,9.23
2022-12-05T07:11:11.480Z,7.15
2022-12-05T07:12:19.417Z,9.70
2022-12-05T07:13:22.684Z,8.57
2022-12-05T07:14:46.563Z,7.47
2022-12-05T07:15:49.232Z,7.88
2022-12-05T07:16:52.034Z,7.70
2022-12-05T07:17:54.848Z,7.03
2022-12-05T07:18:57.887Z,7.88
2022-12-05T07:20:01.025Z,8.77
2022-12-05T07:21:14.478Z,8.63
2022-12-05T07:22:18.890Z,8.30
2022-12-05T07:23:21.724Z,9.35
2022-12-05T07:24:24.521Z,8.40
2022-12-05T07:25:27.299Z,9.27
2022-12-05T07:26:30.117Z,8.43
2022-12-05T07:27:34.269Z,8.15
2022-12-05T07:28:37.146Z,8.82
2022-12-05T07:29:40.215Z,8.93
2022-12-05T07:30:43.059Z,8.15
2022-12-05T07:31:45.945Z,8.65
2022-12-05T07:32:48.831Z,10.05
2022-12-05T07:33:51.728Z,9.15
2022-12-05T07:34:55.742Z,8.57
2022-12-05T07:36:03.543Z,8.52
2022-12-05T07:37:06.457Z,9.23
2022-12-05T07:38:09.365Z,8.57
2022-12-05T07:39:12.113Z,8.77
2022-12-05T07:40:15.092Z,8.45
2022-12-05T07:41:21.890Z,8.07
2022-12-05T07:42:24.722Z,9.45
2022-12-05T07:43:27.474Z,9.15
2022-12-05T07:44:30.263Z,10.57
2022-12-05T07:45:35.708Z,8.43
2022-12-05T07:46:38.840Z,8.88
2022-12-05T07:47:41.802Z,9.77
2022-12-05T07:48:44.630Z,8.43
2022-12-05T07:49:47.790Z,10.25
2022-12-05T07:50:50.531Z,9.45
2022-12-05T07:51:53.265Z,10.20
2022-12-05T07:52:56.072Z,8.57
2022-12-05T07:53:59.389Z,9.73
2022-12-05T07:55:02.177Z,9.35
2022-12-05T07:56:07.340Z,9.80
2022-12-05T07:57:10.195Z,9.57
2022-12-05T07:58:13.055Z,10.07
2022-12-05T07:59:15.775Z,9.10
2022-12-05T08:00:19.203Z,9.75
2022-12-05T08:01:24.711Z,8.95
2022-12-05T08:02:27.709Z,9.50
2022-12-05T08:03:30.850Z,8.05
2022-12-05T08:04:33.796Z,9.50
2022-12-05T08:05:37.682Z,9.30
2022-12-05T08:06:40.420Z,9.32
2022-12-05T08:07:43.191Z,9.73
2022-12-05T08:08:50.074Z,11.32
2022-12-05T08:09:53.025Z,11.02
2022-12-05T08:10:55.661Z,10.57
2022-12-05T08:11:58.492Z,10.55
2022-12-05T08:13:01.487Z,9.40
2022-12-05T08:14:06.016Z,10.60
2022-12-05T08:15:09.599Z,8.80
2022-12-05T08:16:14.538Z,10.55
2022-12-05T08:17:18.179Z,10.30
2022-12-05T08:18:25.863Z,9.35
2022-12-05T08:19:30.050Z,9.73
2022-12-05T08:20:32.754Z,9.00
2022-12-05T08:21:36.049Z,9.38
2022-12-05T08:22:38.807Z,9.68
2022-12-05T08:23:41.460Z,9.80
2022-12-05T08:24:44.144Z,10.57
2022-12-05T08:25:46.791Z,10.40
2022-12-05T08:26:49.576Z,9.80
2022-12-05T08:27:52.328Z,9.27
2022-12-05T08:29:03.754Z,10.63
2022-12-05T08:30:07.080Z,9.43
2022-12-05T08:31:15.204Z,8.85
2022-12-05T08:32:17.905Z,9.77
2022-12-05T08:33:20.592Z,11.07
2022-12-05T08:34:23.236Z,9.57
2022-12-05T08:35:25.848Z,9.75
2022-12-05T08:36:30.361Z,9.35
2022-12-05T08:37:33.117Z,8.68
2022-12-05T08:38:36.463Z,8.88
2022-12-05T08:39:39.162Z,9.07
2022-12-05T08:40:41.870Z,11.30
2022-12-05T08:41:46.230Z,9.45
2022-12-05T08:42:48.896Z,9.65
2022-12-05T08:43:51.549Z,10.00
2022-12-05T08:44:54.594Z,10.02
2022-12-05T08:45:57.555Z,10.45
2022-12-05T08:47:00.326Z,11.15
2022-12-05T08:48:03.048Z,10.20
2022-12-05T08:49:06.483Z,10.85
2022-12-05T08:50:09.471Z,9.77
2022-12-05T08:51:13.123Z,9.25
2022-12-05T08:52:15.734Z,9.23
2022-12-05T08:53:18.613Z,9.80
2022-12-05T08:54:21.217Z,9.93
2022-12-05T08:55:23.861Z,9.27
2022-12-05T08:56:27.494Z,11.50
2022-12-05T08:57:30.383Z,10.00
2022-12-05T08:58:33.048Z,10.18
2022-12-05T08:59:35.720Z,9.00
2022-12-05T09:00:39.170Z,11.23
2022-12-05T09:01:42.372Z,10.35
2022-12-05T09:02:45.364Z,9.82
2022-12-05T09:03:48.458Z,10.02
2022-12-05T09:04:54.103Z,9.90
2022-12-05T09:06:06.806Z,10.43
2022-12-05T09:07:09.519Z,10.73
2022-12-05T09:08:12.304Z,9.50
2022-12-05T09:09:15.066Z,10.05
2022-12-05T09:10:17.981Z,9.68
2022-12-05T09:11:24.171Z,9.75
2022-12-05T09:12:26.960Z,10.00
2022-12-05T09:13:29.766Z,9.35
2022-12-05T09:14:33.121Z,9.25
2022-12-05T09:15:38.916Z,8.77
2022-12-05T09:16:42.268Z,10.65
2022-12-05T09:17:45.258Z,9.40
2022-12-05T09:18:49.186Z,9.85
2022-12-05T09:19:52.811Z,9.85
2022-12-05T09:20:55.551Z,9.68
2022-12-05T09:21:58.385Z,10.80
2022-12-05T09:23:01.069Z,9.30
2022-12-05T09:24:03.848Z,9.23
2022-12-05T09:25:07.548Z,9.98
2022-12-05T09:26:13.008Z,9.98
2022-12-05T09:27:16.274Z,9.82
2022-12-05T09:28:18.931Z,10.15
2022-12-05T09:29:22.459Z,10.65
2022-12-05T09:30:27.665Z,11.55
2022-12-05T09:31:30.787Z,9.77
2022-12-05T09:32:33.474Z,10.95
2022-12-05T09:33:39.912Z,11.70
2022-12-05T09:34:42.641Z,11.77
2022-12-05T09:35:45.425Z,9.55
2022-12-05T09:37:05.526Z,11.32
2022-12-05T09:38:13.163Z,11.55
2022-12-05T09:39:15.856Z,11.55
2022-12-05T09:40:19.120Z,11.48
2022-12-05T09:42:12.824Z,11.18
2022-12-05T09:43:26.029Z,10.02
2022-12-05T09:44:50.259Z,11.00
2022-12-05T09:46:00.590Z,10.70
2022-12-05T09:47:26.039Z,10.77
2022-12-05T09:48:29.293Z,12.20
2022-12-05T09:49:32.786Z,12.65
2022-12-05T09:50:46.127Z,11.60
2022-12-05T09:51:55.070Z,11.52
2022-12-05T09:53:09.615Z,12.20
2022-12-05T09:54:13.495Z,10.82
2022-12-05T09:55:19.272Z,11.05
2022-12-05T09:56:26.221Z,10.02
2022-12-05T09:57:37.190Z,9.70
2022-12-05T09:58:44.199Z,11.18
2022-12-05T09:59:46.815Z,11.48
2022-12-05T10:01:00.662Z,10.20
2022-12-05T10:02:28.333Z,11.85
2022-12-05T10:03:43.573Z,11.35
2022-12-05T10:05:24.157Z,10.77
2022-12-05T10:06:32.385Z,11.32
2022-12-05T10:08:12.831Z,10.60
2022-12-05T10:09:42.630Z,10.20
2022-12-05T10:11:05.806Z,9.73
2022-12-05T10:12:32.870Z,9.98
2022-12-05T10:13:53.395Z,9.90
2022-12-05T10:15:30.797Z,8.32
2022-12-05T10:16:39.545Z,11.32
2022-12-05T10:17:47.486Z,10.45
2022-12-05T10:18:57.730Z,11.23
2022-12-05T10:20:13.909Z,10.90
2022-12-05T10:21:23.824Z,10.20
2022-12-05T10:22:46.430Z,10.38
2022-12-05T10:23:58.028Z,11.27
2022-12-05T10:25:03.907Z,10.70
2022-12-05T10:26:08.605Z,10.65
2022-12-05T10:27:20.572Z,10.82
2022-12-05T10:28:55.881Z,10.13
2022-12-05T10:30:07.556Z,11.00
2022-12-05T10:31:13.461Z,10.77
2022-12-05T10:32:19.820Z,11.80
2022-12-05T10:33:24.369Z,10.90
2022-12-05T10:34:33.993Z,11.48
2022-12-05T10:35:38.992Z,10.38
2022-12-05T10:36:51.067Z,11.02
2022-12-05T10:37:57.348Z,10.77
2022-12-05T10:39:00.093Z,11.25
2022-12-05T10:40:02.991Z,11.18
2022-12-05T10:41:08.097Z,10.90
2022-12-05T10:42:28.366Z,11.07
2022-12-05T10:43:33.656Z,11.77
2022-12-05T10:44:37.147Z,11.80
2022-12-05T10:45:47.119Z,11.32
2022-12-05T10:46:49.903Z,10.73
2022-12-05T10:47:56.853Z,12.40
2022-12-05T10:48:59.846Z,12.85
2022-12-05T10:50:08.495Z,12.57
2022-12-05T10:51:16.181Z,13.00
2022-12-05T10:52:18.990Z,11.00
2022-12-05T10:53:33.207Z,10.77
2022-12-05T10:54:42.338Z,11.20
2022-12-05T10:56:21.623Z,13.13
2022-12-05T10:57:28.330Z,14.00
2022-12-05T10:58:31.444Z,12.27
2022-12-05T11:00:10.209Z,12.90
2022-12-05T11:01:15.992Z,11.93
2022-12-05T11:02:30.155Z,11.00
2022-12-05T11:03:37.934Z,12.63
2022-12-05T11:04:44.205Z,12.98
2022-12-05T11:05:50.952Z,13.65
2022-12-05T11:06:57.393Z,12.68
2022-12-05T11:08:00.318Z,13.73
2022-12-05T11:09:23.674Z,13.35
2022-12-05T11:10:36.819Z,12.85
2022-12-05T11:11:39.771Z,12.77
2022-12-05T11:12:42.612Z,12.50
2022-12-05T11:13:57.392Z,12.02
2022-12-05T11:15:07.637Z,11.73
2022-12-05T11:16:26.072Z,13.50
2022-12-05T11:17:39.900Z,12.90
2022-12-05T11:18:44.765Z,12.90
2022-12-05T11:19:47.710Z,12.38
2022-12-05T11:20:50.510Z,13.45
2022-12-05T11:21:53.978Z,12.77
2022-12-05T11:22:59.392Z,14.65
2022-12-05T11:24:23.454Z,12.52
2022-12-05T11:25:30.371Z,12.48
2022-12-05T11:26:37.137Z,13.05
2022-12-05T11:27:40.803Z,12.10
2022-12-05T11:28:43.441Z,12.30
2022-12-05T11:29:58.507Z,12.52
2022-12-05T11:31:03.614Z,12.38
2022-12-05T11:32:18.292Z,12.20
2022-12-05T11:33:23.175Z,11.50
2022-12-05T11:34:39.107Z,12.38
2022-12-05T11:35:42.105Z,12.05
2022-12-05T11:36:48.730Z,14.18
2022-12-05T11:38:00.964Z,13.98
2022-12-05T11:39:03.856Z,12.80
2022-12-05T11:40:38.387Z,11.85
2022-12-05T11:42:06.542Z,12.82
2022-12-05T11:43:36.107Z,11.82
2022-12-05T11:44:44.438Z,11.43
2022-12-05T11:46:28.569Z,12.95
2022-12-05T11:47:46.143Z,12.55
2022-12-05T11:49:19.512Z,13.10
2022-12-05T11:50:28.816Z,13.30
2022-12-05T11:51:42.486Z,13.02
2022-12-05T11:53:07.185Z,12.05
2022-12-05T11:54:35.521Z,12.45
2022-12-05T11:55:44.251Z,12.38
2022-12-05T11:56:52.691Z,13.18
2022-12-05T11:58:33.005Z,11.40
2022-12-05T12:00:05.727Z,13.00
2022-12-05T12:01:46.218Z,12.93
2022-12-05T12:03:00.659Z,13.02
2022-12-05T12:04:33.451Z,12.38
2022-12-05T12:05:42.104Z,11.90
2022-12-05T12:06:48.156Z,13.07
2022-12-05T12:08:22.297Z,12.68
2022-12-05T12:09:30.794Z,12.85
2022-12-05T12:10:59.708Z,13.13
2022-12-05T12:12:27.849Z,12.32
2022-12-05T12:13:56.189Z,11.65
2022-12-05T12:15:22.672Z,12.15
2022-12-05T12:16:45.762Z,13.57
2022-12-05T12:17:54.902Z,13.35
2022-12-05T12:19:16.859Z,13.45
2022-12-05T12:20:34.849Z,12.95
2022-12-05T12:21:40.381Z,14.07
2022-12-05T12:22:55.154Z,13.02
2022-12-05T12:24:06.851Z,13.18
2022-12-05T12:25:21.385Z,13.60
2022-12-05T12:26:44.270Z,13.65
2022-12-05T12:28:19.050Z,13.13
2022-12-05T12:29:45.147Z,13.43
2022-12-05T12:31:17.696Z,12.63
2022-12-05T12:32:38.894Z,13.48
2022-12-05T12:33:59.747Z,12.80
2022-12-05T12:36:52.681Z,12.18
2022-12-05T12:38:33.181Z,13.40
2022-12-05T12:40:14.000Z,12.75
2022-12-05T12:41:26.606Z,13.15
2022-12-05T12:42:37.002Z,12.38
2022-12-05T12:44:06.488Z,13.60
2022-12-05T12:45:39.794Z,13.77
2022-12-05T12:46:53.207Z,14.07
2022-12-05T12:48:22.904Z,13.80
2022-12-05T12:49:54.173Z,13.95
2022-12-05T12:50:57.458Z,13.55
2022-12-05T12:52:21.847Z,14.43
2022-12-05T12:53:31.836Z,14.18
2022-12-05T12:55:09.117Z,13.23
2022-12-05T12:56:17.367Z,13.50
2022-12-05T12:57:34.813Z,14.25
2022-12-05T12:59:03.293Z,12.90
2022-12-05T13:00:37.468Z,13.85
2022-12-05T13:01:49.428Z,13.60
2022-12-05T13:03:06.400Z,14.18
2022-12-05T13:04:33.541Z,14.15
2022-12-05T13:05:44.778Z,11.93
2022-12-05T13:07:21.178Z,14.15
2022-12-05T13:08:43.390Z,13.60
2022-12-05T13:10:12.083Z,13.23
2022-12-05T13:11:15.684Z,14.27
2022-12-05T13:12:23.123Z,15.10
2022-12-05T13:13:36.809Z,14.32
2022-12-05T13:14:42.330Z,13.30
2022-12-05T13:15:52.210Z,13.88
2022-12-05T13:16:55.875Z,13.80
2022-12-05T13:17:59.725Z,13.57
2022-12-05T13:19:03.157Z,14.93
2022-12-05T13:20:06.693Z,14.23
2022-12-05T13:21:10.401Z,13.07
2022-12-05T13:22:13.725Z,15.52
2022-12-05T13:23:19.572Z,14.25
2022-12-05T13:24:25.935Z,14.95
2022-12-05T13:25:31.371Z,13.93
2022-12-05T13:26:37.142Z,14.23
2022-12-05T13:27:39.813Z,15.63
2022-12-05T13:28:54.856Z,15.23
2022-12-05T13:30:01.219Z,15.13
2022-12-05T13:31:05.877Z,14.18
2022-12-05T13:32:30.086Z,14.55
2022-12-05T13:33:47.644Z,13.55
2022-12-05T13:34:50.855Z,14.98
2022-12-05T13:36:17.566Z,14.77
2022-12-05T13:37:42.281Z,13.85
2022-12-05T13:39:03.783Z,15.07
2022-12-05T13:40:37.222Z,13.23
2022-12-05T13:42:12.641Z,12.80
2022-12-05T13:43:27.216Z,15.60
2022-12-05T13:44:34.537Z,13.85
2022-12-05T13:45:38.087Z,15.30
2022-12-05T13:46:42.500Z,15.23
2022-12-05T13:47:56.151Z,14.98
2022-12-05T13:49:07.163Z,15.98
2022-12-05T13:50:33.349Z,13.50
2022-12-05T13:51:37.793Z,15.38
2022-12-05T13:53:02.485Z,16.10
2022-12-05T13:54:16.048Z,15.30
2022-12-05T13:55:37.933Z,17.73
2022-12-05T13:56:52.842Z,14.38
2022-12-05T13:57:58.944Z,15.18
2022-12-05T13:59:01.741Z,13.25
2022-12-05T14:00:10.470Z,15.57
2022-12-05T14:01:26.274Z,16.65
2022-12-05T14:02:47.300Z,16.05
2022-12-05T14:03:57.121Z,15.63
2022-12-05T14:05:02.649Z,15.77
2022-12-05T14:06:07.067Z,16.33
2022-12-05T14:07:13.193Z,15.30
2022-12-05T14:08:30.811Z,17.15
2022-12-05T14:09:53.916Z,15.60
2022-12-05T14:10:56.578Z,14.57
2022-12-05T14:12:11.548Z,16.50
2022-12-05T14:13:18.038Z,14.60
2022-12-05T14:14:55.586Z,15.82
2022-12-05T14:16:22.740Z,15.18
2022-12-05T14:17:32.858Z,15.60
2022-12-05T14:18:41.920Z,15.80
2022-12-05T14:19:53.000Z,14.52
2022-12-05T14:21:07.111Z,15.80
2022-12-05T14:22:38.525Z,16.63
2022-12-05T14:23:59.945Z,15.10
2022-12-05T14:25:20.099Z,15.38
2022-12-05T14:26:43.883Z,15.88
2022-12-05T14:28:12.089Z,14.52
2022-12-05T14:29:56.362Z,15.15
2022-12-05T14:31:04.477Z,14.48
2022-12-05T14:32:19.379Z,14.18
2022-12-05T14:33:23.020Z,16.10
2022-12-05T14:34:30.522Z,13.57
2022-12-05T14:35:46.277Z,16.70
2022-12-05T14:37:00.829Z,14.25
2022-12-05T14:38:05.523Z,16.13
2022-12-05T14:39:41.668Z,16.27
2022-12-05T14:40:45.172Z,14.48
2022-12-05T14:41:57.255Z,15.90
2022-12-05T14:42:59.933Z,15.93
2022-12-05T14:44:08.463Z,16.58
2022-12-05T14:45:25.535Z,14.40
2022-12-05T14:46:31.639Z,15.80
2022-12-05T14:47:34.689Z,15.73
2022-12-05T14:48:47.103Z,14.52
2022-12-05T14:50:04.777Z,15.00
2022-12-05T14:51:32.728Z,14.88
2022-12-05T14:52:38.531Z,16.13
2022-12-05T14:53:43.069Z,14.20
2022-12-05T14:54:45.809Z,15.43
2022-12-05T14:56:10.414Z,15.85
2022-12-05T14:57:16.359Z,15.93
2022-12-05T14:58:33.227Z,17.05
2022-12-05T14:59:48.595Z,14.55
2022-12-05T15:00:58.786Z,14.77
2022-12-05T15:02:03.290Z,16.13
2022-12-05T15:03:31.935Z,16.83
2022-12-05T15:04:47.054Z,16.58
2022-12-05T15:05:49.872Z,15.40
2022-12-05T15:07:02.785Z,16.17
2022-12-05T15:08:05.844Z,17.25
2022-12-05T15:09:36.054Z,15.70
2022-12-05T15:10:38.242Z,15.65
2022-12-05T15:11:41.046Z,16.77